Time;durP1;ratioP1;P1;durP2;ratioP2;P2;SDS_P1;SDS_P2;PMS_P1;PMS_P2;Temp;Humidity;BMP_temperature;BMP_pressure;BME280_temperature;BME280_humidity;BME280_pressure;Samples;Min_cycle;Max_cycle;Signal;HPM_P1;HPM_P2
2024/04/06 00:00:11;;;;;;;22.88;9.70;;;;;;;;;;1039523;28;20013;-48
2024/04/06 00:00:43;;;;;;;16.15;8.48;;;;;;;;;;1043804;28;20005;-48
2024/04/06 00:01:14;;;;;;;18.25;9.07;;;;;;;;;;1040482;28;20018;-48
2024/04/06 00:01:46;;;;;;;21.17;9.85;;;;;;;;;;1039716;28;20511;-47
2024/04/06 00:02:17;;;;;;;20.92;10.27;;;;;;;;;;1039853;28;20663;-46
2024/04/06 00:02:48;;;;;;;22.77;10.43;;;;;;;;;;1042172;28;20017;-49
2024/04/06 00:03:19;;;;;;;18.58;9.13;;;;;;;;;;1040253;28;20031;-49
2024/04/06 00:03:51;;;;;;;19.08;9.07;;;;;;;;;;1044077;28;20017;-47
2024/04/06 00:04:23;;;;;;;21.20;9.45;;;;;;;;;;1042330;28;20407;-47
2024/04/06 00:04:56;;;;;;;20.15;10.20;;;;;;;;;;1040135;28;20022;-49
2024/04/06 00:05:28;;;;;;;17.25;8.35;;;;;;;;;;1043016;28;20017;-47
2024/04/06 00:05:59;;;;;;;22.38;8.93;;;;;;;;;;1042844;28;20104;-48
2024/04/06 00:06:30;;;;;;;18.75;9.20;;;;;;;;;;1042340;28;20369;-49
2024/04/06 00:07:02;;;;;;;15.52;8.55;;;;;;;;;;1041668;28;20025;-48
2024/04/06 00:07:33;;;;;;;20.98;9.02;;;;;;;;;;1042626;28;20028;-50
2024/04/06 00:08:04;;;;;;;17.15;7.63;;;;;;;;;;1041378;28;20024;-47
2024/04/06 00:08:36;;;;;;;16.48;8.15;;;;;;;;;;1042683;28;20486;-48
2024/04/06 00:09:07;;;;;;;15.70;7.40;;;;;;;;;;1042024;28;20052;-47
2024/04/06 00:09:38;;;;;;;21.77;9.88;;;;;;;;;;1044035;28;20464;-48
2024/04/06 00:10:10;;;;;;;14.45;8.13;;;;;;;;;;1041776;28;20024;-48
2024/04/06 00:10:41;;;;;;;17.75;6.63;;;;;;;;;;1040726;28;20432;-48
2024/04/06 00:11:12;;;;;;;17.02;7.60;;;;;;;;;;1040431;28;20029;-47
2024/04/06 00:11:44;;;;;;;16.55;7.07;;;;;;;;;;1043581;28;20333;-49
2024/04/06 00:12:15;;;;;;;16.20;8.10;;;;;;;;;;1043444;28;20032;-48
2024/04/06 00:12:46;;;;;;;14.35;6.57;;;;;;;;;;1040386;28;20005;-45
2024/04/06 00:13:18;;;;;;;13.23;4.85;;;;;;;;;;1042636;28;20025;-44
2024/04/06 00:13:51;;;;;;;8.15;3.35;;;;;;;;;;1042497;28;20479;-44
2024/04/06 00:14:22;;;;;;;11.43;3.30;;;;;;;;;;1043816;28;20005;-45
2024/04/06 00:14:54;;;;;;;11.75;5.43;;;;;;;;;;1040779;28;20025;-45
2024/04/06 00:15:25;;;;;;;11.18;4.70;;;;;;;;;;1040913;28;20010;-44
2024/04/06 00:15:56;;;;;;;11.65;5.38;;;;;;;;;;1043314;28;20009;-44
2024/04/06 00:16:28;;;;;;;11.40;4.63;;;;;;;;;;1043031;28;20502;-46
2024/04/06 00:16:59;;;;;;;9.68;3.95;;;;;;;;;;1041657;28;20036;-44
2024/04/06 00:17:32;;;;;;;11.05;4.18;;;;;;;;;;1041813;28;20005;-46
2024/04/06 00:18:03;;;;;;;9.55;4.05;;;;;;;;;;1040016;28;20017;-44
2024/04/06 00:18:35;;;;;;;10.77;3.90;;;;;;;;;;1042740;28;20013;-44
2024/04/06 00:19:07;;;;;;;10.23;4.28;;;;;;;;;;1046770;28;20008;-45
2024/04/06 00:19:38;;;;;;;9.10;3.85;;;;;;;;;;1044836;28;20020;-45
2024/04/06 00:20:09;;;;;;;7.68;3.22;;;;;;;;;;1039796;28;20599;-45
2024/04/06 00:20:41;;;;;;;10.27;3.75;;;;;;;;;;1043718;28;20017;-45
2024/04/06 00:21:12;;;;;;;10.98;4.10;;;;;;;;;;1041499;28;20060;-45
2024/04/06 00:21:43;;;;;;;10.60;4.20;;;;;;;;;;1042279;28;20037;-45
2024/04/06 00:22:15;;;;;;;14.98;3.90;;;;;;;;;;1043523;28;20417;-44
2024/04/06 00:22:46;;;;;;;9.55;3.00;;;;;;;;;;1043502;28;20019;-44
2024/04/06 00:23:17;;;;;;;7.95;3.67;;;;;;;;;;1041209;28;20055;-45
2024/04/06 00:23:49;;;;;;;9.38;2.80;;;;;;;;;;1040755;28;20013;-45
2024/04/06 00:24:20;;;;;;;8.40;2.60;;;;;;;;;;1041844;28;20014;-45
2024/04/06 00:24:51;;;;;;;8.57;2.67;;;;;;;;;;1041658;28;20011;-46
2024/04/06 00:25:22;;;;;;;8.32;2.72;;;;;;;;;;1041243;28;20068;-44
2024/04/06 00:25:54;;;;;;;6.78;2.63;;;;;;;;;;1038092;28;20487;-44
2024/04/06 00:26:25;;;;;;;8.82;3.25;;;;;;;;;;1039860;28;20017;-45
2024/04/06 00:26:58;;;;;;;8.20;2.40;;;;;;;;;;1040815;28;20093;-44
2024/04/06 00:27:30;;;;;;;7.72;3.25;;;;;;;;;;1040721;28;20029;-45
2024/04/06 00:28:02;;;;;;;7.43;3.03;;;;;;;;;;1042611;28;20107;-44
2024/04/06 00:28:36;;;;;;;8.00;2.72;;;;;;;;;;1042861;28;20067;-45
2024/04/06 00:29:07;;;;;;;10.52;3.20;;;;;;;;;;1042743;28;20051;-46
2024/04/06 00:29:39;;;;;;;12.73;3.75;;;;;;;;;;1041702;28;20029;-45
2024/04/06 00:30:10;;;;;;;11.07;2.80;;;;;;;;;;1040101;28;20099;-44
2024/04/06 00:30:41;;;;;;;8.00;4.57;;;;;;;;;;1043913;28;20499;-44
2024/04/06 00:31:12;;;;;;;9.98;2.40;;;;;;;;;;1038705;28;20014;-44
2024/04/06 00:31:44;;;;;;;10.50;2.80;;;;;;;;;;1041054;28;20032;-48
2024/04/06 00:32:15;;;;;;;8.45;2.20;;;;;;;;;;1037757;28;20354;-49
2024/04/06 00:32:46;;;;;;;10.45;1.98;;;;;;;;;;1035592;28;20071;-48
2024/04/06 00:33:18;;;;;;;11.27;2.30;;;;;;;;;;1035836;28;20077;-47
2024/04/06 00:33:49;;;;;;;8.27;1.77;;;;;;;;;;1035921;28;20021;-48
2024/04/06 00:34:20;;;;;;;7.82;2.30;;;;;;;;;;1038245;28;20454;-49
2024/04/06 00:34:52;;;;;;;9.40;1.55;;;;;;;;;;1038828;28;20013;-49
2024/04/06 00:35:23;;;;;;;6.70;1.80;;;;;;;;;;1038470;28;20029;-49
2024/04/06 00:35:54;;;;;;;6.75;1.80;;;;;;;;;;1038008;28;20045;-49
2024/04/06 00:36:26;;;;;;;5.78;1.58;;;;;;;;;;1041579;28;20372;-49
2024/04/06 00:36:57;;;;;;;5.18;1.75;;;;;;;;;;1043468;28;20040;-49
2024/04/06 00:37:28;;;;;;;6.35;1.42;;;;;;;;;;1038661;28;20447;-47
2024/04/06 00:38:00;;;;;;;9.35;1.60;;;;;;;;;;1039329;28;20075;-46
2024/04/06 00:38:31;;;;;;;7.05;1.88;;;;;;;;;;1040225;28;20833;-48
2024/04/06 00:39:03;;;;;;;6.90;2.00;;;;;;;;;;1043582;28;20420;-49
2024/04/06 00:39:34;;;;;;;7.68;2.28;;;;;;;;;;1039305;28;20071;-49
2024/04/06 00:40:05;;;;;;;5.95;1.52;;;;;;;;;;1039360;28;20484;-48
2024/04/06 00:40:37;;;;;;;6.32;1.58;;;;;;;;;;1038213;28;20107;-49
2024/04/06 00:41:08;;;;;;;6.63;2.03;;;;;;;;;;1038496;28;20057;-48
2024/04/06 00:41:39;;;;;;;6.03;1.58;;;;;;;;;;1043439;28;20427;-47
2024/04/06 00:42:11;;;;;;;8.02;1.92;;;;;;;;;;1043860;28;20115;-47
2024/04/06 00:42:42;;;;;;;8.57;1.73;;;;;;;;;;1041797;28;20013;-47
2024/04/06 00:43:14;;;;;;;6.28;1.25;;;;;;;;;;1040805;28;20037;-47
2024/04/06 00:43:45;;;;;;;5.82;1.40;;;;;;;;;;1043180;28;20538;-49
2024/04/06 00:44:16;;;;;;;6.40;1.80;;;;;;;;;;1041225;28;20036;-47
2024/04/06 00:44:48;;;;;;;10.55;2.78;;;;;;;;;;1043406;28;20017;-48
2024/04/06 00:45:19;;;;;;;6.80;1.55;;;;;;;;;;1043511;28;20215;-46
2024/04/06 00:45:51;;;;;;;6.95;1.35;;;;;;;;;;1043498;28;20017;-47
2024/04/06 00:46:22;;;;;;;4.70;1.90;;;;;;;;;;1043817;28;20435;-47
2024/04/06 00:46:53;;;;;;;4.65;1.17;;;;;;;;;;1041954;28;20040;-47
2024/04/06 00:47:24;;;;;;;8.02;1.45;;;;;;;;;;1040050;28;20033;-49
2024/04/06 00:47:56;;;;;;;5.32;1.23;;;;;;;;;;1040272;28;20033;-48
2024/04/06 00:48:27;;;;;;;4.80;1.30;;;;;;;;;;1043206;28;20017;-45
2024/04/06 00:48:59;;;;;;;7.93;1.23;;;;;;;;;;1040330;28;20083;-47
2024/04/06 00:49:30;;;;;;;6.10;1.40;;;;;;;;;;1041572;28;20484;-47
2024/04/06 00:50:04;;;;;;;6.72;1.38;;;;;;;;;;1043488;28;20557;-49
2024/04/06 00:50:35;;;;;;;6.03;1.42;;;;;;;;;;1047141;28;20106;-48
2024/04/06 00:51:07;;;;;;;8.35;1.75;;;;;;;;;;1043386;28;20039;-48
2024/04/06 00:51:38;;;;;;;9.93;1.38;;;;;;;;;;1041257;28;20449;-47
2024/04/06 00:52:10;;;;;;;5.90;1.10;;;;;;;;;;1042332;28;20056;-47
2024/04/06 00:52:41;;;;;;;6.43;1.90;;;;;;;;;;1043050;28;20048;-48
2024/04/06 00:53:12;;;;;;;8.70;1.80;;;;;;;;;;1043481;28;20016;-48
2024/04/06 00:53:44;;;;;;;5.85;1.48;;;;;;;;;;1040994;28;20021;-48
2024/04/06 00:54:17;;;;;;;8.50;1.00;;;;;;;;;;1041074;28;20100;-49
2024/04/06 00:54:48;;;;;;;3.22;1.00;;;;;;;;;;1042599;28;20017;-47
2024/04/06 00:55:20;;;;;;;4.88;1.50;;;;;;;;;;1044248;28;20001;-48
2024/04/06 00:55:51;;;;;;;6.57;1.23;;;;;;;;;;1043833;28;20044;-47
2024/04/06 00:56:22;;;;;;;5.10;1.70;;;;;;;;;;1043035;28;20067;-48
2024/04/06 00:56:54;;;;;;;8.00;1.42;;;;;;;;;;1043556;28;20014;-49
2024/04/06 00:57:25;;;;;;;6.93;1.10;;;;;;;;;;1040610;28;20017;-49
2024/04/06 00:57:56;;;;;;;5.85;1.63;;;;;;;;;;1038118;28;20364;-49
2024/04/06 00:58:28;;;;;;;7.75;1.60;;;;;;;;;;1039483;28;20045;-48
2024/04/06 00:58:59;;;;;;;5.18;1.30;;;;;;;;;;1039147;28;20021;-49
2024/04/06 00:59:31;;;;;;;8.75;2.10;;;;;;;;;;1038129;28;20021;-47
2024/04/06 01:00:03;;;;;;;2.38;1.20;;;;;;;;;;1035852;28;20021;-48
2024/04/06 01:00:34;;;;;;;8.77;1.40;;;;;;;;;;1043423;28;20056;-49
2024/04/06 01:01:06;;;;;;;4.25;1.30;;;;;;;;;;1043336;28;20063;-48
2024/04/06 01:01:37;;;;;;;7.30;1.40;;;;;;;;;;1039180;28;20021;-48
2024/04/06 01:02:08;;;;;;;6.03;1.40;;;;;;;;;;1039302;28;20039;-48
2024/04/06 01:02:40;;;;;;;5.13;1.52;;;;;;;;;;1041814;28;20541;-46
2024/04/06 01:03:11;;;;;;;6.30;1.40;;;;;;;;;;1039649;28;20033;-49
2024/04/06 01:03:44;;;;;;;4.50;1.15;;;;;;;;;;1039579;28;20025;-50
2024/04/06 01:04:15;;;;;;;5.68;1.70;;;;;;;;;;1038183;28;20112;-47
2024/04/06 01:04:47;;;;;;;4.80;1.20;;;;;;;;;;1040152;28;20026;-48
2024/04/06 01:05:18;;;;;;;5.78;1.45;;;;;;;;;;1038348;28;20025;-48
2024/04/06 01:05:50;;;;;;;5.07;1.10;;;;;;;;;;1036684;28;20092;-48
2024/04/06 01:06:21;;;;;;;4.85;0.88;;;;;;;;;;1038415;28;20048;-45
2024/04/06 01:06:54;;;;;;;5.30;1.65;;;;;;;;;;1038742;28;20080;-48
2024/04/06 01:07:26;;;;;;;5.38;1.45;;;;;;;;;;1039034;28;20030;-47
2024/04/06 01:07:58;;;;;;;7.28;1.38;;;;;;;;;;1044299;28;20022;-49
2024/04/06 01:08:29;;;;;;;5.28;1.45;;;;;;;;;;1043835;28;20059;-47
2024/04/06 01:09:01;;;;;;;7.38;1.33;;;;;;;;;;1040824;28;20144;-46
2024/04/06 01:09:32;;;;;;;2.65;0.98;;;;;;;;;;1043460;28;20618;-48
2024/04/06 01:10:04;;;;;;;6.30;1.05;;;;;;;;;;1043110;28;20021;-48
2024/04/06 01:10:35;;;;;;;4.68;1.45;;;;;;;;;;1045319;28;20740;-48
2024/04/06 01:11:07;;;;;;;5.55;1.20;;;;;;;;;;1039641;28;20044;-49
2024/04/06 01:11:38;;;;;;;4.28;1.40;;;;;;;;;;1042655;28;20055;-48
2024/04/06 01:12:10;;;;;;;5.30;1.27;;;;;;;;;;1041321;28;20021;-48
2024/04/06 01:12:41;;;;;;;4.80;1.42;;;;;;;;;;1043118;28;20460;-47
2024/04/06 01:13:14;;;;;;;4.75;1.05;;;;;;;;;;1041581;28;20372;-48
2024/04/06 01:13:45;;;;;;;7.38;1.40;;;;;;;;;;1041946;28;20114;-50
2024/04/06 01:14:16;;;;;;;3.63;1.50;;;;;;;;;;1043182;28;20036;-50
2024/04/06 01:14:48;;;;;;;7.32;1.35;;;;;;;;;;1039714;28;20022;-48
2024/04/06 01:15:19;;;;;;;6.03;0.90;;;;;;;;;;1039363;28;20021;-48
2024/04/06 01:15:50;;;;;;;4.05;0.95;;;;;;;;;;1039407;28;20025;-48
2024/04/06 01:16:22;;;;;;;6.30;1.55;;;;;;;;;;1040579;28;20010;-47
2024/04/06 01:16:53;;;;;;;5.47;1.30;;;;;;;;;;1043848;28;20130;-50
2024/04/06 01:17:24;;;;;;;5.93;1.45;;;;;;;;;;1046996;28;20029;-48
2024/04/06 01:17:56;;;;;;;5.15;1.15;;;;;;;;;;1043279;28;20012;-47
2024/04/06 01:18:27;;;;;;;5.07;1.20;;;;;;;;;;1045372;28;20020;-48
2024/04/06 01:18:58;;;;;;;7.05;1.50;;;;;;;;;;1043468;28;20112;-48
2024/04/06 01:19:30;;;;;;;8.60;1.38;;;;;;;;;;1041995;28;20025;-48
2024/04/06 01:20:02;;;;;;;7.57;1.38;;;;;;;;;;1043050;28;20060;-48
2024/04/06 01:20:35;;;;;;;7.78;1.55;;;;;;;;;;1042337;28;20025;-48
2024/04/06 01:21:06;;;;;;;9.75;1.95;;;;;;;;;;1041976;28;20017;-48
2024/04/06 01:21:38;;;;;;;7.97;2.10;;;;;;;;;;1042598;28;20096;-49
2024/04/06 01:22:09;;;;;;;2.70;1.10;;;;;;;;;;1041716;28;20032;-49
2024/04/06 01:22:40;;;;;;;8.70;1.73;;;;;;;;;;1032807;28;20132;-48
2024/04/06 01:23:12;;;;;;;4.40;1.48;;;;;;;;;;1031758;28;20030;-46
2024/04/06 01:23:44;;;;;;;5.68;1.55;;;;;;;;;;1032230;28;20109;-48
2024/04/06 01:24:31;;;;;;;3.88;1.30;;;;;;;;;;1038832;28;20152;-48
2024/04/06 01:25:04;;;;;;;3.85;1.30;;;;;;;;;;1041142;28;20114;-45
2024/04/06 01:25:35;;;;;;;5.40;1.65;;;;;;;;;;1043281;28;20013;-50
2024/04/06 01:26:07;;;;;;;5.32;1.08;;;;;;;;;;1043091;28;20013;-48
2024/04/06 01:26:38;;;;;;;4.30;0.88;;;;;;;;;;1041446;28;20087;-48
2024/04/06 01:27:09;;;;;;;7.40;1.83;;;;;;;;;;1040586;28;20037;-49
2024/04/06 01:27:41;;;;;;;6.18;1.58;;;;;;;;;;1040203;28;20118;-47
2024/04/06 01:28:12;;;;;;;7.18;1.20;;;;;;;;;;1039610;28;20113;-49
2024/04/06 01:28:43;;;;;;;5.78;1.85;;;;;;;;;;1041016;28;20017;-50
2024/04/06 01:29:16;;;;;;;3.00;0.93;;;;;;;;;;1036668;28;20373;-49
2024/04/06 01:29:47;;;;;;;5.20;1.27;;;;;;;;;;1038017;28;20025;-49
2024/04/06 01:30:19;;;;;;;7.60;1.60;;;;;;;;;;1032187;28;20015;-49
2024/04/06 01:30:50;;;;;;;6.15;1.75;;;;;;;;;;1035142;28;20013;-46
2024/04/06 01:31:21;;;;;;;5.32;1.33;;;;;;;;;;1037605;28;20120;-44
2024/04/06 01:31:53;;;;;;;7.45;1.38;;;;;;;;;;1038188;28;20044;-46
2024/04/06 01:32:25;;;;;;;4.88;1.23;;;;;;;;;;1043060;28;20018;-46
2024/04/06 01:32:58;;;;;;;8.98;1.45;;;;;;;;;;1047989;28;20008;-46
2024/04/06 01:33:29;;;;;;;7.07;1.48;;;;;;;;;;1044532;28;20024;-46
2024/04/06 01:34:00;;;;;;;6.50;1.30;;;;;;;;;;1041200;28;20104;-46
2024/04/06 01:34:32;;;;;;;5.60;1.38;;;;;;;;;;1041812;28;20109;-46
2024/04/06 01:35:03;;;;;;;4.18;1.27;;;;;;;;;;1039198;28;20151;-46
2024/04/06 01:35:34;;;;;;;6.18;1.73;;;;;;;;;;1038289;28;20068;-44
2024/04/06 01:36:06;;;;;;;4.55;1.00;;;;;;;;;;1035635;28;20018;-45
2024/04/06 01:36:38;;;;;;;5.18;1.73;;;;;;;;;;1041676;28;20016;-45
2024/04/06 01:37:10;;;;;;;5.55;1.33;;;;;;;;;;1039422;28;20009;-46
2024/04/06 01:37:41;;;;;;;7.10;1.30;;;;;;;;;;1041980;28;20372;-45
2024/04/06 01:38:12;;;;;;;11.18;1.20;;;;;;;;;;1040165;28;20089;-44
2024/04/06 01:38:45;;;;;;;5.28;1.13;;;;;;;;;;1043040;28;20437;-44
2024/04/06 01:39:16;;;;;;;6.75;1.50;;;;;;;;;;1039756;28;20021;-47
2024/04/06 01:39:47;;;;;;;8.85;1.38;;;;;;;;;;1043791;28;20062;-47
2024/04/06 01:40:18;;;;;;;4.53;1.02;;;;;;;;;;1041916;28;20200;-47
2024/04/06 01:40:50;;;;;;;7.18;1.20;;;;;;;;;;1043459;28;20013;-48
2024/04/06 01:41:21;;;;;;;6.32;1.33;;;;;;;;;;1041698;28;20487;-47
2024/04/06 01:41:53;;;;;;;6.18;1.08;;;;;;;;;;1039828;28;20428;-48
2024/04/06 01:42:24;;;;;;;4.30;1.25;;;;;;;;;;1042454;28;20021;-47
2024/04/06 01:42:56;;;;;;;7.65;1.15;;;;;;;;;;1041641;28;20601;-52
2024/04/06 01:43:27;;;;;;;7.35;1.60;;;;;;;;;;1038706;28;20024;-48
2024/04/06 01:43:59;;;;;;;5.82;1.20;;;;;;;;;;1037398;28;20401;-48
2024/04/06 01:44:30;;;;;;;6.30;1.60;;;;;;;;;;1040286;28;20105;-53
2024/04/06 01:45:02;;;;;;;6.00;1.40;;;;;;;;;;1042961;28;20383;-47
2024/04/06 01:45:34;;;;;;;5.88;1.65;;;;;;;;;;1040735;28;20061;-45
2024/04/06 01:46:05;;;;;;;4.30;1.33;;;;;;;;;;1041247;28;20026;-47
2024/04/06 01:46:36;;;;;;;4.32;1.17;;;;;;;;;;1041727;28;20012;-44
2024/04/06 01:47:07;;;;;;;7.35;1.23;;;;;;;;;;1043537;28;20013;-48
2024/04/06 01:47:39;;;;;;;5.97;1.10;;;;;;;;;;1042507;28;20039;-50
2024/04/06 01:48:11;;;;;;;7.38;1.85;;;;;;;;;;1040619;28;20164;-47
2024/04/06 01:48:43;;;;;;;5.68;1.50;;;;;;;;;;1041543;28;20021;-49
2024/04/06 01:49:14;;;;;;;6.35;1.30;;;;;;;;;;1042290;28;20112;-48
2024/04/06 01:49:45;;;;;;;8.52;1.52;;;;;;;;;;1040977;28;20041;-48
2024/04/06 01:50:17;;;;;;;6.72;1.60;;;;;;;;;;1040580;28;20020;-48
2024/04/06 01:50:48;;;;;;;4.80;1.00;;;;;;;;;;1043665;28;20467;-47
2024/04/06 01:51:20;;;;;;;7.20;1.17;;;;;;;;;;1042832;28;20025;-48
2024/04/06 01:51:52;;;;;;;6.70;1.02;;;;;;;;;;1041683;28;20093;-48
2024/04/06 01:52:23;;;;;;;6.45;1.35;;;;;;;;;;1044481;28;20044;-48
2024/04/06 01:52:54;;;;;;;6.47;1.27;;;;;;;;;;1043166;28;20024;-46
2024/04/06 01:53:26;;;;;;;5.78;1.80;;;;;;;;;;1040065;28;20041;-48
2024/04/06 01:53:57;;;;;;;4.78;1.30;;;;;;;;;;1040095;28;20037;-48
2024/04/06 01:54:28;;;;;;;5.05;1.45;;;;;;;;;;1040407;28;20018;-49
2024/04/06 01:55:00;;;;;;;5.18;1.25;;;;;;;;;;1040193;28;20492;-50
2024/04/06 01:55:31;;;;;;;10.45;1.60;;;;;;;;;;1037645;28;20365;-47
2024/04/06 01:56:03;;;;;;;9.88;2.13;;;;;;;;;;1040180;28;20049;-48
2024/04/06 01:56:34;;;;;;;4.53;1.05;;;;;;;;;;1040554;28;20022;-46
2024/04/06 01:57:05;;;;;;;4.32;1.45;;;;;;;;;;1043899;28;20032;-47
2024/04/06 01:57:38;;;;;;;8.90;1.42;;;;;;;;;;1043653;28;20542;-46
2024/04/06 01:58:09;;;;;;;6.18;1.60;;;;;;;;;;1044253;28;20380;-50
2024/04/06 01:58:40;;;;;;;5.45;1.45;;;;;;;;;;1041125;28;20010;-47
2024/04/06 01:59:12;;;;;;;6.93;1.20;;;;;;;;;;1043756;28;20028;-48
2024/04/06 01:59:45;;;;;;;6.85;1.40;;;;;;;;;;1045147;28;20051;-48
2024/04/06 02:00:17;;;;;;;6.10;1.20;;;;;;;;;;1044684;28;20040;-48
2024/04/06 02:00:49;;;;;;;5.55;1.52;;;;;;;;;;1043381;28;20017;-48
2024/04/06 02:01:21;;;;;;;25.05;22.42;;;;;;;;;;1044618;28;20164;-51
2024/04/06 02:01:52;;;;;;;4.40;1.38;;;;;;;;;;1043122;28;20052;-47
2024/04/06 02:02:23;;;;;;;6.50;1.80;;;;;;;;;;1041623;28;20465;-48
2024/04/06 02:02:55;;;;;;;6.65;1.92;;;;;;;;;;1044139;28;20009;-46
2024/04/06 02:03:26;;;;;;;3.65;1.23;;;;;;;;;;1045708;28;20028;-48
2024/04/06 02:03:58;;;;;;;10.02;2.03;;;;;;;;;;1036528;28;20010;-49
2024/04/06 02:04:30;;;;;;;4.32;1.15;;;;;;;;;;1042941;28;20013;-48
2024/04/06 02:05:01;;;;;;;8.32;1.50;;;;;;;;;;1043517;28;20399;-48
2024/04/06 02:05:33;;;;;;;10.07;1.63;;;;;;;;;;1041206;28;20021;-48
2024/04/06 02:06:04;;;;;;;4.60;1.08;;;;;;;;;;1042898;28;20096;-47
2024/04/06 02:06:37;;;;;;;6.22;1.55;;;;;;;;;;1044584;28;20130;-48
2024/04/06 02:07:08;;;;;;;5.15;1.23;;;;;;;;;;1039391;28;20108;-47
2024/04/06 02:07:39;;;;;;;4.15;1.25;;;;;;;;;;1036422;28;20053;-48
2024/04/06 02:08:10;;;;;;;5.07;1.15;;;;;;;;;;1039867;28;20026;-48
2024/04/06 02:08:42;;;;;;;5.82;1.35;;;;;;;;;;1040383;28;20022;-55
2024/04/06 02:09:13;;;;;;;3.47;1.20;;;;;;;;;;1043439;28;20024;-49
2024/04/06 02:09:44;;;;;;;4.18;1.75;;;;;;;;;;1043895;28;20617;-49
2024/04/06 02:10:16;;;;;;;6.72;1.10;;;;;;;;;;1042493;28;20171;-46
2024/04/06 02:10:47;;;;;;;6.28;1.05;;;;;;;;;;1044005;28;20029;-46
2024/04/06 02:11:19;;;;;;;5.50;1.25;;;;;;;;;;1040888;28;20017;-48
2024/04/06 02:11:50;;;;;;;7.25;1.15;;;;;;;;;;1042040;28;20013;-48
2024/04/06 02:12:22;;;;;;;7.45;1.20;;;;;;;;;;1039532;28;20508;-48
2024/04/06 02:12:54;;;;;;;6.35;1.10;;;;;;;;;;1039903;28;20064;-47
2024/04/06 02:13:25;;;;;;;2.97;1.10;;;;;;;;;;1041488;28;20431;-46
2024/04/06 02:13:57;;;;;;;5.10;1.40;;;;;;;;;;1045277;28;20068;-47
2024/04/06 02:14:28;;;;;;;4.82;1.48;;;;;;;;;;1045884;28;20115;-47
2024/04/06 02:14:59;;;;;;;5.03;1.67;;;;;;;;;;1043526;28;20025;-48
2024/04/06 02:15:32;;;;;;;9.07;1.40;;;;;;;;;;1041861;28;20472;-48
2024/04/06 02:16:03;;;;;;;6.05;1.25;;;;;;;;;;1044626;28;20052;-47
2024/04/06 02:16:35;;;;;;;8.57;1.98;;;;;;;;;;1046915;28;20503;-47
2024/04/06 02:17:06;;;;;;;6.70;1.40;;;;;;;;;;1044197;28;20135;-47
2024/04/06 02:17:37;;;;;;;6.03;1.40;;;;;;;;;;1047065;28;20022;-47
2024/04/06 02:18:09;;;;;;;5.90;1.33;;;;;;;;;;1041661;28;20082;-48
2024/04/06 02:18:41;;;;;;;8.45;1.88;;;;;;;;;;1040443;28;20476;-48
2024/04/06 02:19:14;;;;;;;3.50;1.35;;;;;;;;;;1044193;28;20036;-47
2024/04/06 02:19:45;;;;;;;4.10;1.20;;;;;;;;;;1044524;28;20013;-50
2024/04/06 02:20:16;;;;;;;5.57;1.35;;;;;;;;;;1040291;28;20017;-47
2024/04/06 02:20:48;;;;;;;6.28;1.30;;;;;;;;;;1043951;28;20019;-48
2024/04/06 02:21:19;;;;;;;4.35;1.20;;;;;;;;;;1043986;28;20021;-48
2024/04/06 02:21:51;;;;;;;6.63;1.30;;;;;;;;;;1040945;28;20022;-48
2024/04/06 02:22:22;;;;;;;6.05;1.65;;;;;;;;;;1041450;28;20022;-47
2024/04/06 02:22:53;;;;;;;3.55;1.15;;;;;;;;;;1044515;28;20479;-47
2024/04/06 02:23:25;;;;;;;6.38;1.35;;;;;;;;;;1044728;28;20025;-49
2024/04/06 02:23:56;;;;;;;3.45;0.88;;;;;;;;;;1043065;28;20018;-47
2024/04/06 02:24:27;;;;;;;5.65;2.15;;;;;;;;;;1042933;28;20026;-47
2024/04/06 02:24:58;;;;;;;3.67;1.30;;;;;;;;;;1041170;28;20053;-48
2024/04/06 02:25:31;;;;;;;4.97;1.65;;;;;;;;;;1043137;28;20043;-49
2024/04/06 02:26:02;;;;;;;5.90;1.17;;;;;;;;;;1041247;28;20017;-49
2024/04/06 02:26:33;;;;;;;4.65;0.88;;;;;;;;;;1042244;28;20642;-46
2024/04/06 02:27:04;;;;;;;8.15;1.17;;;;;;;;;;1046067;28;20695;-47
2024/04/06 02:27:36;;;;;;;4.28;1.13;;;;;;;;;;1046476;28;20352;-48
2024/04/06 02:28:07;;;;;;;5.03;1.35;;;;;;;;;;1044026;28;20415;-47
2024/04/06 02:28:39;;;;;;;5.82;1.70;;;;;;;;;;1046246;28;20063;-47
2024/04/06 02:29:10;;;;;;;7.30;1.20;;;;;;;;;;1041069;28;20017;-48
2024/04/06 02:29:42;;;;;;;3.58;1.10;;;;;;;;;;1040898;28;20482;-47
2024/04/06 02:30:13;;;;;;;3.88;1.15;;;;;;;;;;1042445;28;20425;-47
2024/04/06 02:30:46;;;;;;;4.97;1.48;;;;;;;;;;1044714;28;20017;-48
2024/04/06 02:31:18;;;;;;;5.75;1.45;;;;;;;;;;1043556;28;20032;-45
2024/04/06 02:31:49;;;;;;;6.38;1.40;;;;;;;;;;1042255;28;20017;-47
2024/04/06 02:32:21;;;;;;;4.97;1.25;;;;;;;;;;1042749;28;20017;-48
2024/04/06 02:32:52;;;;;;;7.05;1.35;;;;;;;;;;1040414;28;20050;-49
2024/04/06 02:33:24;;;;;;;8.00;2.22;;;;;;;;;;1042125;28;20411;-48
2024/04/06 02:33:55;;;;;;;5.35;1.30;;;;;;;;;;1044376;28;20009;-48
2024/04/06 02:34:26;;;;;;;5.22;1.25;;;;;;;;;;1042351;28;20441;-49
2024/04/06 02:34:58;;;;;;;6.45;0.90;;;;;;;;;;1042924;28;20338;-47
2024/04/06 02:35:29;;;;;;;5.03;1.30;;;;;;;;;;1042578;28;20403;-47
2024/04/06 02:36:00;;;;;;;5.80;1.42;;;;;;;;;;1040577;28;20006;-47
2024/04/06 02:36:35;;;;;;;5.90;1.52;;;;;;;;;;1041413;28;20021;-49
2024/04/06 02:37:06;;;;;;;7.60;1.85;;;;;;;;;;1040104;28;20028;-47
2024/04/06 02:37:37;;;;;;;10.75;1.75;;;;;;;;;;1042745;28;20826;-46
2024/04/06 02:38:09;;;;;;;7.18;1.52;;;;;;;;;;1041551;28;20009;-47
2024/04/06 02:38:42;;;;;;;4.88;1.27;;;;;;;;;;1044343;28;20095;-48
2024/04/06 02:39:15;;;;;;;7.72;1.38;;;;;;;;;;1044338;28;20413;-48
2024/04/06 02:39:46;;;;;;;5.22;1.10;;;;;;;;;;1040845;28;20006;-49
2024/04/06 02:40:17;;;;;;;7.13;1.38;;;;;;;;;;1042520;28;20013;-48
2024/04/06 02:40:49;;;;;;;2.83;1.25;;;;;;;;;;1043711;28;20023;-48
2024/04/06 02:41:20;;;;;;;7.53;1.17;;;;;;;;;;1040801;28;20488;-48
2024/04/06 02:41:52;;;;;;;7.30;1.20;;;;;;;;;;1039956;28;20084;-47
2024/04/06 02:42:23;;;;;;;6.53;1.80;;;;;;;;;;1041280;28;20769;-48
2024/04/06 02:42:54;;;;;;;3.85;1.50;;;;;;;;;;1042992;28;20017;-49
2024/04/06 02:43:26;;;;;;;6.57;1.10;;;;;;;;;;1042737;28;20102;-50
2024/04/06 02:43:57;;;;;;;8.55;1.33;;;;;;;;;;1039860;28;20024;-47
2024/04/06 02:44:28;;;;;;;4.35;1.08;;;;;;;;;;1041728;28;20037;-47
2024/04/06 02:45:00;;;;;;;4.60;1.35;;;;;;;;;;1042063;28;20362;-47
2024/04/06 02:45:31;;;;;;;5.80;1.27;;;;;;;;;;1041933;28;20085;-48
2024/04/06 02:46:02;;;;;;;5.78;1.27;;;;;;;;;;1041944;28;20033;-47
2024/04/06 02:46:33;;;;;;;5.93;1.30;;;;;;;;;;1037909;28;20471;-46
2024/04/06 02:47:05;;;;;;;3.15;0.88;;;;;;;;;;1039500;28;20508;-47
2024/04/06 02:47:36;;;;;;;5.03;1.38;;;;;;;;;;1040098;28;20017;-47
2024/04/06 02:48:08;;;;;;;6.90;1.40;;;;;;;;;;1043789;28;20108;-49
2024/04/06 02:48:39;;;;;;;6.28;1.23;;;;;;;;;;1041907;28;20397;-47
2024/04/06 02:49:10;;;;;;;9.75;1.52;;;;;;;;;;1043070;28;20017;-45
2024/04/06 02:49:41;;;;;;;3.90;1.58;;;;;;;;;;1041323;28;20079;-45
2024/04/06 02:50:13;;;;;;;4.47;1.58;;;;;;;;;;1043667;28;20028;-45
2024/04/06 02:50:44;;;;;;;4.25;1.02;;;;;;;;;;1043875;28;20415;-46
2024/04/06 02:51:16;;;;;;;6.18;1.17;;;;;;;;;;1043627;28;20515;-45
2024/04/06 02:51:47;;;;;;;4.78;1.35;;;;;;;;;;1040402;28;20153;-46
2024/04/06 02:52:19;;;;;;;6.65;1.63;;;;;;;;;;1043076;28;20523;-46
2024/04/06 02:52:50;;;;;;;5.25;1.63;;;;;;;;;;1043842;28;20501;-46
2024/04/06 02:53:21;;;;;;;5.78;1.35;;;;;;;;;;1041982;28;20088;-45
2024/04/06 02:53:53;;;;;;;7.47;1.80;;;;;;;;;;1041576;28;20021;-45
2024/04/06 02:54:24;;;;;;;4.28;1.05;;;;;;;;;;1043947;28;20406;-45
2024/04/06 02:54:56;;;;;;;4.43;1.52;;;;;;;;;;1041604;28;20017;-45
2024/04/06 02:55:27;;;;;;;6.35;2.38;;;;;;;;;;1041900;28;20025;-46
2024/04/06 02:55:59;;;;;;;3.60;1.40;;;;;;;;;;1039470;28;20124;-45
2024/04/06 02:56:30;;;;;;;5.28;1.30;;;;;;;;;;1035693;28;20576;-45
2024/04/06 02:57:01;;;;;;;6.50;1.42;;;;;;;;;;1035371;28;20117;-45
2024/04/06 02:57:33;;;;;;;8.38;1.33;;;;;;;;;;1034171;28;20037;-45
2024/04/06 02:58:04;;;;;;;4.45;1.55;;;;;;;;;;1035768;28;20017;-45
2024/04/06 02:58:35;;;;;;;5.93;1.50;;;;;;;;;;1038909;28;20038;-44
2024/04/06 02:59:07;;;;;;;7.68;1.67;;;;;;;;;;1041079;28;20018;-45
2024/04/06 02:59:38;;;;;;;5.95;1.33;;;;;;;;;;1040854;28;20009;-45
2024/04/06 03:00:12;;;;;;;6.38;1.10;;;;;;;;;;1040115;28;20443;-45
2024/04/06 03:00:44;;;;;;;3.97;1.20;;;;;;;;;;1043626;28;20482;-44
2024/04/06 03:01:15;;;;;;;5.57;1.40;;;;;;;;;;1043805;28;20113;-45
2024/04/06 03:01:46;;;;;;;5.57;1.45;;;;;;;;;;1040174;28;20109;-45
2024/04/06 03:02:19;;;;;;;5.75;1.50;;;;;;;;;;1041033;28;20398;-45
2024/04/06 03:02:50;;;;;;;5.60;1.42;;;;;;;;;;1042802;28;20017;-44
2024/04/06 03:03:23;;;;;;;4.85;1.10;;;;;;;;;;1041070;28;20040;-44
2024/04/06 03:03:54;;;;;;;6.07;1.20;;;;;;;;;;1039732;28;20841;-45
2024/04/06 03:04:25;;;;;;;7.07;1.45;;;;;;;;;;1035598;28;20022;-45
2024/04/06 03:04:56;;;;;;;13.80;1.60;;;;;;;;;;1040481;28;20021;-44
2024/04/06 03:05:28;;;;;;;7.53;1.20;;;;;;;;;;1040837;28;20025;-45
2024/04/06 03:06:00;;;;;;;6.70;1.30;;;;;;;;;;1040163;28;20060;-45
2024/04/06 03:06:31;;;;;;;5.07;1.10;;;;;;;;;;1043656;28;20090;-45
2024/04/06 03:07:02;;;;;;;3.85;1.10;;;;;;;;;;1036822;28;20026;-45
2024/04/06 03:07:34;;;;;;;7.82;1.30;;;;;;;;;;1039777;28;20036;-45
2024/04/06 03:08:05;;;;;;;4.30;1.33;;;;;;;;;;1039637;28;20097;-45
2024/04/06 03:08:37;;;;;;;4.72;1.40;;;;;;;;;;1042606;28;20016;-44